Time;durP1;ratioP1;P1;durP2;ratioP2;P2;SDS_P1;SDS_P2;PMS_P1;PMS_P2;Temp;Humidity;BMP_temperature;BMP_pressure;BME280_temperature;BME280_humidity;BME280_pressure;Samples;Min_cycle;Max_cycle;Signal;HPM_P1;HPM_P2
2022/02/04 00:23:16;;;;;;;92.12;51.98;;;;;;;-2.33;82.30;97990.02;1789526;79;20903;-63
2022/02/04 00:26:03;;;;;;;66.87;41.45;;;;;;;-2.27;82.43;97982.61;1789516;79;21276;-66
2022/02/04 00:33:35;;;;;;;71.25;43.02;;;;;;;-2.11;82.32;97985.55;1789466;80;20821;-61
2022/02/04 00:36:12;;;;;;;79.30;47.08;;;;;;;-2.09;82.25;97985.34;1789606;79;20844;-66
2022/02/04 00:38:37;;;;;;;73.22;41.05;;;;;;;-2.07;82.35;97991.17;1788013;79;20931;-65
2022/02/04 00:41:05;;;;;;;54.60;33.18;;;;;;;-2.04;82.33;97994.70;1788788;79;20864;-62
2022/02/04 00:43:27;;;;;;;53.90;34.78;;;;;;;-2.03;82.37;97988.45;1789035;79;21726;-59
2022/02/04 00:46:04;;;;;;;68.80;39.42;;;;;;;-2.05;82.39;97989.17;1789527;80;21549;-60
2022/02/04 00:48:43;;;;;;;57.70;34.20;;;;;;;-2.08;82.45;97984.33;1788483;79;20880;-61
2022/02/04 00:53:42;;;;;;;55.75;32.15;;;;;;;-2.02;82.54;97982.17;1789720;80;20911;-65
2022/02/04 00:56:21;;;;;;;57.13;32.98;;;;;;;-1.97;82.49;97974.47;1788519;79;21130;-63
2022/02/04 01:26:18;;;;;;;44.23;26.73;;;;;;;-1.76;82.60;97944.44;1794842;80;21509;-65
2022/02/04 01:28:47;;;;;;;51.80;29.60;;;;;;;-1.74;82.64;97939.77;1794769;79;20951;-59
2022/02/04 01:31:17;;;;;;;43.08;26.30;;;;;;;-1.71;82.62;97944.11;1795031;80;21002;-64
2022/02/04 01:33:44;;;;;;;40.83;24.18;;;;;;;-1.73;82.55;97944.83;1794915;80;20860;-60
2022/02/04 01:36:12;;;;;;;37.40;23.52;;;;;;;-1.74;82.62;97952.41;1795245;80;21105;-62
2022/02/04 01:38:39;;;;;;;37.42;23.27;;;;;;;-1.74;82.66;97955.03;1794815;80;20907;-60
2022/02/04 01:41:08;;;;;;;38.67;24.30;;;;;;;-1.73;82.73;97956.65;1794747;80;20935;-59
2022/02/04 01:43:36;;;;;;;41.30;25.35;;;;;;;-1.71;82.77;97953.30;1794749;79;21517;-63
2022/02/04 01:46:05;;;;;;;37.00;23.55;;;;;;;-1.69;82.74;97955.70;1795155;80;20880;-62
2022/02/04 01:48:32;;;;;;;35.80;22.02;;;;;;;-1.66;82.78;97953.97;1794763;80;21061;-63
2022/02/04 01:50:59;;;;;;;33.70;22.67;;;;;;;-1.64;82.77;97958.50;1794798;80;21407;-60
2022/02/04 01:53:30;;;;;;;33.98;22.02;;;;;;;-1.61;82.78;97953.64;1794968;80;21047;-62
2022/02/04 01:56:01;;;;;;;32.38;22.00;;;;;;;-1.58;82.76;97954.50;1794830;80;20935;-64
2022/02/04 01:58:29;;;;;;;40.63;26.70;;;;;;;-1.55;82.74;97954.58;1795169;80;20935;-63
2022/02/04 02:00:56;;;;;;;40.05;27.25;;;;;;;-1.53;82.75;97954.67;1794939;79;21107;-60
2022/02/04 02:03:22;;;;;;;48.95;29.07;;;;;;;-1.48;82.66;97954.02;1794970;80;21386;-61
2022/02/04 02:05:51;;;;;;;45.33;28.92;;;;;;;-1.46;82.59;97951.48;1803665;79;20875;-64
2022/02/04 02:08:19;;;;;;;74.20;45.80;;;;;;;-1.46;82.55;97955.42;1795018;79;21043;-65
2022/02/04 02:10:47;;;;;;;91.85;52.60;;;;;;;-1.45;82.58;97955.73;1795130;80;21422;-65
2022/02/04 02:13:36;;;;;;;69.95;42.73;;;;;;;-1.43;82.54;97957.63;1795014;79;21101;-60
2022/02/04 02:16:20;;;;;;;49.55;31.45;;;;;;;-1.42;82.51;97959.25;1794204;79;20935;-64
2022/02/04 02:35:29;;;;;;;37.55;25.62;;;;;;;-1.47;82.65;97961.70;1795261;80;20915;-62
2022/02/04 02:44:05;;;;;;;43.52;29.45;;;;;;;-1.37;82.51;97955.16;1795092;80;20864;-63
2022/02/04 02:48:42;;;;;;;40.38;25.60;;;;;;;-1.36;82.50;97956.25;1795200;80;20924;-66
2022/02/04 02:51:16;;;;;;;39.65;25.15;;;;;;;-1.37;82.46;97955.44;1792643;78;20918;-60
2022/02/04 02:56:53;;;;;;;39.10;26.20;;;;;;;-1.30;82.54;97957.22;1795231;80;20903;-64
2022/02/04 02:59:12;;;;;;;45.35;28.52;;;;;;;-1.27;82.51;97958.11;1791145;80;20900;-64
2022/02/04 03:01:15;;;;;;;39.27;25.25;;;;;;;-1.27;82.47;97960.20;1785028;80;20920;-61
2022/02/04 03:03:44;;;;;;;39.38;26.12;;;;;;;-1.30;82.46;97963.29;1795012;79;20860;-59
2022/02/04 03:06:11;;;;;;;37.13;23.85;;;;;;;-1.29;82.45;97969.33;1794988;80;22266;-62
2022/02/04 03:08:38;;;;;;;37.03;25.30;;;;;;;-1.29;82.47;97965.38;1795125;79;21497;-61
2022/02/04 03:11:04;;;;;;;34.80;24.05;;;;;;;-1.29;82.47;97969.33;1794955;80;20994;-60
2022/02/04 03:13:33;;;;;;;34.70;23.35;;;;;;;-1.28;82.53;97964.38;1794946;80;20880;-60
2022/02/04 03:16:03;;;;;;;34.05;23.12;;;;;;;-1.27;82.56;97964.69;1795005;79;20916;-65
2022/02/04 03:18:32;;;;;;;41.83;26.12;;;;;;;-1.26;82.53;97964.45;1794831;79;21119;-60
2022/02/04 03:21:03;;;;;;;64.30;39.00;;;;;;;-1.24;82.46;97962.41;1795050;79;20884;-60
2022/02/04 03:23:28;;;;;;;45.92;29.12;;;;;;;-1.24;82.47;97956.34;1787354;79;20967;-61
2022/02/04 03:25:59;;;;;;;40.20;26.02;;;;;;;-1.25;82.48;97960.83;1783797;79;20869;-63
2022/02/04 03:28:27;;;;;;;46.05;29.50;;;;;;;-1.25;82.49;97962.64;1783558;79;20876;-66
2022/02/04 03:30:53;;;;;;;43.60;27.32;;;;;;;-1.24;82.57;97956.34;1783813;79;21921;-64
2022/02/04 03:33:24;;;;;;;42.20;25.97;;;;;;;-1.21;82.57;97953.30;1783665;80;21440;-61
2022/02/04 03:35:49;;;;;;;36.23;23.90;;;;;;;-1.18;82.64;97946.30;1783551;79;20911;-63
2022/02/04 03:38:17;;;;;;;48.40;29.27;;;;;;;-1.11;82.60;97945.73;1783766;80;20959;-62
2022/02/04 03:40:44;;;;;;;42.70;27.32;;;;;;;-1.07;82.58;97945.08;1784176;79;20904;-65
2022/02/04 03:43:10;;;;;;;35.88;24.57;;;;;;;-1.03;82.54;97937.55;1783717;80;21184;-60
2022/02/04 03:45:37;;;;;;;41.88;25.95;;;;;;;-1.03;82.42;97938.35;1784035;80;21446;-60
2022/02/04 03:48:05;;;;;;;50.08;29.07;;;;;;;-1.06;82.35;97932.74;1783698;79;20991;-64
2022/02/04 03:50:32;;;;;;;59.20;33.80;;;;;;;-1.08;82.40;97928.19;1783777;80;20884;-65
2022/02/04 03:52:59;;;;;;;39.67;26.15;;;;;;;-1.06;82.42;97930.89;1783849;79;21027;-64
2022/02/04 03:55:26;;;;;;;51.18;32.93;;;;;;;-1.05;82.45;97929.08;1783976;80;21098;-66
2022/02/04 03:57:52;;;;;;;54.00;36.42;;;;;;;-1.05;82.37;97931.20;1783738;80;20861;-65
2022/02/04 04:00:19;;;;;;;55.60;35.10;;;;;;;-1.08;82.34;97930.81;1784039;80;20874;-65
2022/02/04 04:02:47;;;;;;;49.75;32.05;;;;;;;-1.14;82.33;97939.58;1783744;80;20920;-65
2022/02/04 04:05:15;;;;;;;50.70;30.72;;;;;;;-1.20;82.34;97937.30;1783750;80;21022;-64
2022/02/04 04:07:46;;;;;;;50.92;29.98;;;;;;;-1.26;82.46;97943.44;1783704;79;22264;-63
2022/02/04 04:10:15;;;;;;;43.90;26.65;;;;;;;-1.29;82.58;97947.80;1783536;79;20907;-63
2022/02/04 04:12:39;;;;;;;43.50;29.27;;;;;;;-1.29;82.65;97944.36;1783418;79;21359;-63
2022/02/04 04:15:09;;;;;;;45.70;29.77;;;;;;;-1.31;82.73;97945.09;1783766;80;20963;-61
2022/02/04 04:17:44;;;;;;;38.33;26.42;;;;;;;-1.28;82.84;97942.04;1783702;80;20971;-59
2022/02/04 04:20:19;;;;;;;44.03;26.15;;;;;;;-1.24;82.87;97943.20;1784142;80;21683;-63
2022/02/04 04:22:45;;;;;;;42.88;28.15;;;;;;;-1.21;82.87;97945.41;1786069;80;20869;-60
2022/02/04 04:25:12;;;;;;;48.58;29.07;;;;;;;-1.17;82.86;97943.45;1794906;80;21415;-61
2022/02/04 04:27:42;;;;;;;37.83;25.60;;;;;;;-1.12;82.91;97942.29;1794894;80;20915;-63
2022/02/04 04:30:14;;;;;;;29.40;21.07;;;;;;;-1.05;82.83;97943.03;1794914;80;20845;-64
2022/02/04 04:32:42;;;;;;;29.10;21.65;;;;;;;-1.02;82.66;97944.42;1794823;80;21097;-60
2022/02/04 04:35:11;;;;;;;33.48;22.62;;;;;;;-1.01;82.54;97936.81;1794725;80;20943;-65
2022/02/04 04:37:52;;;;;;;34.55;23.35;;;;;;;-1.00;82.55;97945.00;1794890;80;20921;-60
2022/02/04 05:29:27;;;;;;;42.90;26.65;;;;;;;-1.14;82.38;97925.12;1784024;80;21423;-65
2022/02/04 05:31:54;;;;;;;46.13;26.07;;;;;;;-1.14;82.30;97930.38;1783741;80;20915;-60
2022/02/04 05:34:21;;;;;;;48.63;28.87;;;;;;;-1.15;82.29;97936.64;1783778;80;20845;-65
2022/02/04 05:36:57;;;;;;;50.63;31.15;;;;;;;-1.17;82.26;97932.94;1784195;80;20967;-62
2022/02/04 05:39:24;;;;;;;46.35;27.98;;;;;;;-1.17;82.31;97936.06;1782758;79;21074;-64
2022/02/04 05:41:48;;;;;;;68.67;36.25;;;;;;;-1.16;82.31;97924.55;1782922;79;21442;-64
2022/02/04 05:44:15;;;;;;;73.17;37.35;;;;;;;-1.16;82.34;97923.23;1783879;79;20884;-62
2022/02/04 05:46:57;;;;;;;75.92;40.48;;;;;;;-1.14;82.34;97919.87;1783891;80;20841;-59
2022/02/04 05:49:22;;;;;;;79.65;42.98;;;;;;;-1.14;82.33;97925.12;1783497;79;20857;-62
2022/02/04 05:54:38;;;;;;;90.90;45.33;;;;;;;-1.18;82.34;97927.41;1783730;80;20829;-60
2022/02/04 06:02:03;;;;;;;83.15;42.78;;;;;;;-1.25;82.45;97938.48;1783784;80;21041;-61
2022/02/04 06:07:07;;;;;;;69.85;39.30;;;;;;;-1.30;82.40;97946.71;1783939;79;20869;-67
2022/02/04 06:12:43;;;;;;;75.37;37.35;;;;;;;-1.31;82.43;97947.72;1784021;80;21439;-64
2022/02/04 06:15:12;;;;;;;74.80;38.83;;;;;;;-1.33;82.45;97952.39;1780453;80;20923;-63
2022/02/04 06:22:57;;;;;;;77.20;43.90;;;;;;;-1.31;82.57;97957.73;1784454;79;21457;-62
2022/02/04 06:25:24;;;;;;;82.50;46.63;;;;;;;-1.31;82.65;97960.86;1789748;79;20912;-63
2022/02/04 06:27:51;;;;;;;80.03;47.85;;;;;;;-1.31;82.62;97956.91;1789921;80;21465;-62
2022/02/04 06:30:17;;;;;;;80.45;48.20;;;;;;;-1.30;82.63;97959.85;1789677;80;21325;-64
2022/02/04 06:32:46;;;;;;;80.15;47.83;;;;;;;-1.29;82.62;97959.63;1789701;80;21509;-65
2022/02/04 06:35:12;;;;;;;81.55;47.58;;;;;;;-1.25;82.53;97962.64;1790167;79;20919;-64
2022/02/04 06:37:39;;;;;;;68.30;41.30;;;;;;;-1.26;82.46;97963.64;1789706;80;20903;-61
2022/02/04 06:40:09;;;;;;;64.40;39.10;;;;;;;-1.27;82.43;97960.74;1789574;80;20987;-64
2022/02/04 06:42:36;;;;;;;56.60;34.48;;;;;;;-1.26;82.40;97961.02;1789769;80;21719;-64
2022/02/04 06:45:05;;;;;;;53.05;33.45;;;;;;;-1.22;82.39;97963.50;1789871;80;20903;-65
2022/02/04 06:47:31;;;;;;;50.83;31.70;;;;;;;-1.19;82.38;97953.88;1789736;80;20932;-66
2022/02/04 06:49:58;;;;;;;51.42;30.23;;;;;;;-1.14;82.27;97954.04;1789902;80;20955;-64
2022/02/04 06:52:25;;;;;;;47.75;30.10;;;;;;;-1.14;82.12;97951.41;1789877;80;21556;-60
2022/02/04 06:54:52;;;;;;;47.48;30.90;;;;;;;-1.17;82.04;97942.64;1789547;80;21270;-66
2022/02/04 06:57:19;;;;;;;45.75;30.65;;;;;;;-1.18;82.07;97948.42;1789585;80;20916;-65
2022/02/04 06:59:47;;;;;;;47.43;31.00;;;;;;;-1.14;82.17;97944.84;1789640;80;20924;-66
2022/02/04 07:02:14;;;;;;;63.98;38.65;;;;;;;-1.07;82.05;97944.27;1789493;80;20884;-66
2022/02/04 07:04:43;;;;;;;66.92;37.42;;;;;;;-1.02;82.05;97939.16;1789573;80;20868;-63
2022/02/04 07:07:10;;;;;;;57.15;37.20;;;;;;;-0.99;81.90;97938.73;1789651;80;21767;-61
2022/02/04 07:09:46;;;;;;;81.28;44.85;;;;;;;-0.98;81.87;97933.75;1789585;80;20979;-64
2022/02/04 07:12:20;;;;;;;101.25;49.80;;;;;;;-0.92;81.96;97933.68;1790053;79;20927;-61
2022/02/04 07:15:08;;;;;;;101.67;52.90;;;;;;;-0.82;81.74;97934.48;1789104;79;21364;-60
2022/02/04 07:19:58;;;;;;;133.60;72.40;;;;;;;-0.81;81.40;97929.53;1789795;80;21763;-60
2022/02/04 07:22:31;;;;;;;128.45;61.55;;;;;;;-0.81;81.46;97929.53;1789539;80;20908;-61
2022/02/04 07:25:01;;;;;;;105.03;56.85;;;;;;;-0.76;81.43;97931.00;1785188;80;20963;-62
2022/02/04 07:27:29;;;;;;;123.18;62.48;;;;;;;-0.74;81.26;97925.00;1783762;80;20959;-66
2022/02/04 07:29:56;;;;;;;121.17;59.20;;;;;;;-0.75;81.12;97928.14;1783832;79;20896;-65
2022/02/04 07:32:37;;;;;;;114.95;58.42;;;;;;;-0.75;81.21;97925.51;1783881;80;21070;-66
2022/02/04 07:35:19;;;;;;;112.08;54.60;;;;;;;-0.67;81.12;97932.31;1783232;79;20873;-64
2022/02/04 07:43:03;;;;;;;84.80;42.40;;;;;;;-0.47;80.73;97918.92;1788424;77;20890;-66
2022/02/04 07:45:34;;;;;;;79.72;41.28;;;;;;;-0.38;80.57;97921.03;1798158;79;21150;-61
2022/02/04 07:48:02;;;;;;;92.35;42.25;;;;;;;-0.32;80.34;97917.50;1748809;80;20869;-62
2022/02/04 07:50:30;;;;;;;71.15;37.35;;;;;;;-0.27;80.17;97911.56;1783776;80;21490;-60
2022/02/04 07:52:57;;;;;;;68.42;36.48;;;;;;;-0.21;79.91;97919.87;1783894;80;21362;-63
2022/02/04 07:55:25;;;;;;;63.58;33.90;;;;;;;-0.17;79.71;97909.20;1783917;80;20857;-63
2022/02/04 07:57:52;;;;;;;54.13;31.02;;;;;;;;;;1783865;79;21122;-63
2022/02/04 08:00:19;;;;;;;51.90;30.95;;;;;;;-0.06;79.33;97909.24;1783733;80;20971;-61
2022/02/04 08:02:47;;;;;;;69.85;36.20;;;;;;;-0.01;79.03;97905.94;1783642;79;20900;-66
2022/02/04 08:05:18;;;;;;;83.82;44.53;;;;;;;0.02;78.86;97899.42;1783833;80;20888;-61
2022/02/04 08:08:00;;;;;;;101.05;45.55;;;;;;;0.05;78.67;97901.61;1783640;79;21007;-59
2022/02/04 08:10:35;;;;;;;71.72;38.08;;;;;;;0.11;78.54;97904.64;1782929;79;21122;-64
2022/02/04 08:13:25;;;;;;;84.35;41.37;;;;;;;0.18;78.34;97901.40;1782461;79;21477;-63
2022/02/04 08:24:22;;;;;;;62.30;35.60;;;;;;;0.35;77.65;97908.94;1816576;78;21416;-68
2022/02/04 08:29:30;;;;;;;49.80;33.90;;;;;;;0.51;77.10;97902.99;1827508;78;21387;-66
2022/02/04 08:32:01;;;;;;;60.58;35.92;;;;;;;0.54;76.86;97906.50;1824489;78;21002;-63
2022/02/04 08:46:40;;;;;;;67.45;36.90;;;;;;;0.70;76.15;97890.00;1776114;78;20951;-64
2022/02/04 08:50:45;;;;;;;97.12;52.50;;;;;;;0.91;75.25;97895.20;1817716;77;21557;-65
2022/02/04 08:53:36;;;;;;;138.12;62.75;;;;;;;0.94;75.04;97899.51;1795897;78;21510;-63
2022/02/04 08:55:54;;;;;;;105.05;55.43;;;;;;;1.02;74.73;97890.41;1790926;80;20971;-67
2022/02/04 08:58:36;;;;;;;120.47;53.17;;;;;;;1.10;74.61;97889.56;1793856;79;21568;-61
2022/02/04 09:01:17;;;;;;;96.60;48.28;;;;;;;1.23;74.20;97885.84;1793854;79;21419;-62
2022/02/04 09:04:30;;;;;;;91.25;49.05;;;;;;;1.30;73.75;97882.05;1793438;79;21130;-65
2022/02/04 09:06:14;;;;;;;106.50;51.68;;;;;;;1.36;73.65;97877.17;1775122;80;20963;-70
2022/02/04 09:08:43;;;;;;;137.52;64.40;;;;;;;1.49;73.23;97873.95;1794430;79;21423;-68
2022/02/04 09:11:14;;;;;;;140.47;63.63;;;;;;;1.57;72.74;97880.19;1794035;79;21049;-65
2022/02/04 09:19:17;;;;;;;125.47;56.23;;;;;;;1.73;72.03;97876.80;1795162;80;20916;-63
2022/02/04 09:24:12;;;;;;;149.62;63.55;;;;;;;1.91;71.30;97883.19;1792304;80;21145;-65
2022/02/04 09:26:39;;;;;;;88.55;43.85;;;;;;;1.99;71.08;97880.17;1783655;80;20896;-68
2022/02/04 09:29:05;;;;;;;128.78;57.65;;;;;;;2.05;70.83;97883.17;1783032;80;22265;-63
2022/02/04 09:31:35;;;;;;;102.42;48.87;;;;;;;2.07;70.48;97889.05;1785728;77;21023;-64
2022/02/04 09:34:03;;;;;;;87.40;43.05;;;;;;;2.01;70.27;97889.98;1806902;79;20877;-68
2022/02/04 09:36:32;;;;;;;101.02;45.43;;;;;;;2.00;70.22;97897.09;1805319;79;21380;-65
2022/02/04 09:38:59;;;;;;;94.47;44.48;;;;;;;2.02;70.17;97898.20;1783936;79;21435;-66
2022/02/04 09:41:26;;;;;;;149.27;59.33;;;;;;;1.99;70.22;97890.73;1783600;79;21116;-66
2022/02/04 09:43:53;;;;;;;115.88;49.03;;;;;;;2.01;70.32;97889.98;1784699;78;21015;-63
2022/02/04 09:46:20;;;;;;;52.17;29.40;;;;;;;1.97;70.23;97896.27;1785433;79;20991;-70
2022/02/04 09:48:52;;;;;;;112.37;45.30;;;;;;;1.96;70.05;97889.89;1808141;77;20916;-67
2022/02/04 09:51:19;;;;;;;131.35;51.77;;;;;;;1.94;70.28;97894.09;1790425;78;21486;-64
2022/02/04 10:16:14;;;;;;;66.87;36.88;;;;;;;2.36;69.07;97876.03;1777131;80;20955;-66
2022/02/04 10:18:39;;;;;;;52.45;28.40;;;;;;;2.41;69.23;97883.24;1775769;80;20934;-70
2022/02/04 10:21:03;;;;;;;22.25;16.15;;;;;;;2.52;69.00;97871.26;1734774;80;21201;-63
2022/02/04 10:23:51;;;;;;;31.40;19.25;;;;;;;2.67;68.21;97871.50;1777381;80;20899;-68
2022/02/04 10:26:18;;;;;;;15.25;11.97;;;;;;;2.75;67.44;97872.94;1787374;80;20970;-63
2022/02/04 10:28:45;;;;;;;21.40;12.75;;;;;;;2.78;66.15;97874.56;1788668;80;21029;-68
2022/02/04 10:31:22;;;;;;;29.25;19.25;;;;;;;2.81;66.24;97875.11;1788827;80;20938;-64
2022/02/04 10:33:58;;;;;;;18.55;12.68;;;;;;;2.92;65.92;97867.62;1788894;80;21518;-64
2022/02/04 10:36:54;;;;;;;15.98;11.57;;;;;;;2.98;64.92;97865.30;1788740;80;20898;-68
2022/02/04 10:45:35;;;;;;;16.52;12.75;;;;;;;2.94;64.37;97849.65;1809149;78;21484;-61
2022/02/04 10:48:08;;;;;;;16.97;12.70;;;;;;;2.88;64.33;97849.28;1792930;79;21071;-62
2022/02/04 10:56:12;;;;;;;16.12;12.33;;;;;;;2.83;64.03;97833.38;1821065;78;20896;-62
2022/02/04 11:03:31;;;;;;;17.87;13.78;;;;;;;2.89;64.40;97841.64;1793895;80;21016;-68
2022/02/04 11:06:31;;;;;;;19.17;13.43;;;;;;;2.93;63.99;97840.09;1793982;79;21101;-65
2022/02/04 11:08:50;;;;;;;21.87;15.18;;;;;;;2.97;64.10;97830.65;1791939;80;20982;-63
2022/02/04 11:11:14;;;;;;;18.20;13.65;;;;;;;3.05;64.39;97827.56;1771039;80;21090;-62
2022/02/04 11:22:03;;;;;;;22.42;16.15;;;;;;;3.08;64.40;97822.59;1818390;78;20955;-70
2022/02/04 11:31:03;;;;;;;19.73;12.40;;;;;;;3.06;63.94;97815.94;1820668;78;21184;-61
2022/02/04 11:52:43;;;;;;;17.90;13.08;;;;;;;3.22;63.76;97783.31;1827798;78;20871;-61
2022/02/04 11:55:17;;;;;;;19.65;12.07;;;;;;;3.26;63.79;97793.15;1824554;78;20987;-65
2022/02/04 11:57:59;;;;;;;21.00;13.40;;;;;;;3.31;63.62;97791.08;1824362;77;21545;-68
2022/02/04 12:00:38;;;;;;;17.87;12.88;;;;;;;3.39;63.67;97784.80;1826801;78;20955;-66
2022/02/04 12:03:29;;;;;;;16.52;12.55;;;;;;;3.45;63.50;97780.38;1826608;78;20999;-68
2022/02/04 12:05:56;;;;;;;17.55;11.95;;;;;;;3.49;63.42;97781.47;1827813;78;21509;-62
2022/02/04 12:08:24;;;;;;;16.50;11.70;;;;;;;3.56;63.42;97776.77;1827105;78;21116;-69
2022/02/04 12:13:28;;;;;;;19.20;11.22;;;;;;;3.64;63.06;97767.06;1826962;78;21574;-66
2022/02/04 12:16:07;;;;;;;11.95;10.28;;;;;;;3.63;62.99;97764.12;1827650;78;21495;-69
2022/02/04 12:18:44;;;;;;;13.78;10.68;;;;;;;3.69;62.97;97759.68;1827452;78;21007;-66
2022/02/04 12:21:19;;;;;;;17.23;10.65;;;;;;;3.79;62.83;97765.08;1827641;78;21124;-67
2022/02/04 12:23:49;;;;;;;15.38;11.88;;;;;;;3.81;62.47;97767.75;1828527;78;21004;-63
2022/02/04 12:26:22;;;;;;;16.40;11.25;;;;;;;3.95;62.58;97767.61;1827491;78;21031;-65
2022/02/04 12:29:01;;;;;;;18.30;12.37;;;;;;;4.03;62.14;97765.80;1816711;78;20916;-65
2022/02/04 12:31:30;;;;;;;12.58;9.00;;;;;;;4.01;61.99;97762.60;1824655;78;20919;-62
2022/02/04 12:34:14;;;;;;;15.78;10.80;;;;;;;3.97;61.77;97762.84;1828352;78;21127;-60
2022/02/04 12:36:58;;;;;;;13.68;10.90;;;;;;;3.92;62.12;97762.80;1828429;78;21002;-66
2022/02/04 12:39:34;;;;;;;13.45;10.60;;;;;;;3.91;62.05;97746.61;1828592;78;20891;-59
2022/02/04 12:42:04;;;;;;;13.60;10.65;;;;;;;3.87;62.25;97746.86;1798946;78;20910;-62
2022/02/04 12:44:38;;;;;;;15.38;12.53;;;;;;;3.80;62.64;97751.56;1827883;78;20901;-60
2022/02/04 12:47:13;;;;;;;13.85;11.10;;;;;;;3.77;62.95;97757.36;1838874;78;21035;-59
2022/02/04 12:49:52;;;;;;;14.05;10.80;;;;;;;3.75;63.23;97748.88;1797658;78;20923;-63
2022/02/04 12:52:41;;;;;;;14.25;11.12;;;;;;;3.74;63.45;97757.89;1825429;78;21513;-69
2022/02/04 12:55:34;;;;;;;13.10;9.95;;;;;;;3.64;63.75;97749.04;1818631;78;21382;-65
2022/02/04 13:08:08;;;;;;;15.10;8.90;;;;;;;3.31;65.74;97736.81;1827585;78;21395;-69
2022/02/04 13:10:27;;;;;;;12.23;9.13;;;;;;;3.25;66.16;97737.82;1826287;78;20909;-61
2022/02/04 13:13:06;;;;;;;12.43;9.25;;;;;;;3.22;66.64;97731.70;1815026;78;21143;-68
2022/02/04 13:15:35;;;;;;;13.32;10.63;;;;;;;3.17;66.89;97725.02;1824956;78;20934;-63
2022/02/04 13:18:12;;;;;;;12.20;9.40;;;;;;;3.14;67.36;97718.89;1796350;78;20919;-61
2022/02/04 13:20:41;;;;;;;13.13;9.48;;;;;;;3.11;67.40;97719.41;1827127;78;20963;-67
2022/02/04 13:23:24;;;;;;;13.78;9.13;;;;;;;3.06;67.75;97714.06;1823817;78;20927;-62
2022/02/04 13:25:53;;;;;;;17.75;9.75;;;;;;;3.01;68.18;97706.06;1784709;80;21401;-69
2022/02/04 13:28:21;;;;;;;15.65;9.78;;;;;;;2.94;68.68;97710.23;1765264;80;21497;-68
2022/02/04 13:31:03;;;;;;;14.10;9.75;;;;;;;2.83;69.05;97706.41;1819744;78;20972;-61
2022/02/04 13:33:35;;;;;;;16.70;9.80;;;;;;;2.70;69.61;97705.73;1820871;78;20913;-68
2022/02/04 13:36:52;;;;;;;12.13;9.20;;;;;;;2.61;70.00;97703.76;1802617;78;21057;-62
2022/02/04 13:39:27;;;;;;;13.45;9.95;;;;;;;2.52;70.47;97702.05;1800746;78;22116;-61
2022/02/04 13:41:19;;;;;;;15.93;10.30;;;;;;;2.48;70.80;97698.30;1801187;78;21014;-66
2022/02/04 13:46:20;;;;;;;15.98;9.70;;;;;;;2.43;71.50;97692.14;1743993;78;21459;-68
2022/02/04 13:49:08;;;;;;;12.25;8.93;;;;;;;2.42;71.80;97687.92;1817984;78;20973;-63
2022/02/04 13:52:52;;;;;;;13.53;9.93;;;;;;;2.37;72.11;97693.14;1819958;78;21069;-59
2022/02/04 13:57:00;;;;;;;13.68;10.35;;;;;;;2.31;72.63;97697.55;1812782;78;21045;-65
2022/02/04 13:59:38;;;;;;;16.77;11.12;;;;;;;2.32;72.82;97704.45;1815129;78;20963;-62
2022/02/04 14:02:16;;;;;;;17.48;11.45;;;;;;;2.34;73.11;97706.83;1819343;78;20924;-67
2022/02/04 14:05:01;;;;;;;20.90;12.80;;;;;;;2.36;73.27;97702.09;1814540;78;21164;-63
2022/02/04 14:07:52;;;;;;;19.80;12.40;;;;;;;2.35;73.50;97703.97;1814931;77;21027;-62
2022/02/04 14:10:32;;;;;;;20.37;12.00;;;;;;;2.33;73.66;97702.06;1813894;77;20941;-69
2022/02/04 14:13:11;;;;;;;22.75;12.73;;;;;;;2.32;73.76;97703.64;1811308;78;20952;-68
2022/02/04 14:15:45;;;;;;;14.45;10.45;;;;;;;2.27;73.94;97701.73;1817543;78;21020;-62
2022/02/04 14:18:12;;;;;;;16.48;11.75;;;;;;;2.25;74.19;97693.77;1819554;78;21673;-66
2022/02/04 14:20:41;;;;;;;16.73;11.50;;;;;;;2.20;74.42;97696.33;1821116;78;20910;-66
2022/02/04 14:23:11;;;;;;;18.60;12.18;;;;;;;2.14;74.66;97698.13;1821440;77;20967;-69
2022/02/04 14:26:00;;;;;;;19.87;13.32;;;;;;;2.11;74.87;97696.48;1820917;78;20971;-68
2022/02/04 14:28:41;;;;;;;18.98;14.03;;;;;;;2.09;75.03;97698.05;1809048;78;20957;-62
2022/02/04 14:31:08;;;;;;;23.05;16.17;;;;;;;2.05;75.26;97701.69;1807750;79;21110;-61
2022/02/04 14:34:36;;;;;;;19.12;14.58;;;;;;;2.04;75.46;97701.42;1806687;79;20930;-65
2022/02/04 14:36:21;;;;;;;18.77;13.83;;;;;;;2.01;75.62;97699.26;1804649;79;21548;-67
2022/02/04 14:52:24;;;;;;;24.10;15.50;;;;;;;1.94;77.09;97705.74;1809089;79;20875;-67
2022/02/04 15:02:22;;;;;;;22.62;14.53;;;;;;;2.01;77.79;97715.11;1808281;79;20879;-65
2022/02/04 15:04:48;;;;;;;27.93;18.42;;;;;;;2.02;78.00;97719.88;1808247;79;20846;-63
2022/02/04 15:07:14;;;;;;;25.90;16.65;;;;;;;2.02;78.23;97725.16;1808805;79;20909;-69
2022/02/04 15:09:51;;;;;;;25.48;16.73;;;;;;;2.01;78.43;97716.94;1809068;79;21199;-69
2022/02/04 15:12:10;;;;;;;25.75;18.17;;;;;;;1.95;78.67;97712.64;1807626;79;20922;-65
2022/02/04 15:14:38;;;;;;;27.13;19.90;;;;;;;1.91;79.00;97712.82;1808947;79;20957;-68
2022/02/04 15:17:05;;;;;;;23.98;16.75;;;;;;;1.88;79.29;97708.05;1809177;79;21405;-69
2022/02/04 15:19:33;;;;;;;32.03;22.15;;;;;;;1.86;79.49;97710.12;1809293;79;20874;-63
2022/02/04 15:22:03;;;;;;;34.78;25.45;;;;;;;1.85;79.81;97717.77;1809254;79;21875;-68
2022/02/04 15:24:29;;;;;;;43.73;29.55;;;;;;;1.85;79.99;97711.97;1809281;79;20950;-68
2022/02/04 15:26:56;;;;;;;46.95;31.73;;;;;;;1.87;80.16;97711.72;1813579;79;21012;-68
2022/02/04 15:29:22;;;;;;;61.05;39.78;;;;;;;1.84;80.35;97705.59;1817740;79;21373;-68
2022/02/04 15:31:53;;;;;;;50.73;33.48;;;;;;;1.82;80.63;97708.99;1817674;79;20894;-68
2022/02/04 15:34:18;;;;;;;58.33;37.67;;;;;;;1.85;80.79;97704.56;1817057;79;21388;-69
2022/02/04 15:36:46;;;;;;;51.02;35.50;;;;;;;1.85;81.05;97708.52;1817584;79;20894;-62
2022/02/04 15:39:21;;;;;;;42.45;28.75;;;;;;;1.85;81.26;97708.52;1817622;79;21297;-65
2022/02/04 15:41:53;;;;;;;40.73;26.27;;;;;;;1.85;81.45;97704.05;1817824;79;20914;-63
2022/02/04 15:44:33;;;;;;;35.45;23.87;;;;;;;1.85;81.62;97709.33;1817642;79;20882;-69
2022/02/04 15:52:37;;;;;;;44.98;27.07;;;;;;;1.72;82.32;97703.58;1817746;79;20954;-63
2022/02/04 16:04:51;;;;;;;52.10;35.38;;;;;;;1.70;83.69;97695.88;1817625;79;20918;-66
2022/02/04 16:07:20;;;;;;;86.50;60.90;;;;;;;1.65;83.89;97696.34;1817879;79;20934;-67
2022/02/04 16:09:57;;;;;;;82.15;57.20;;;;;;;1.61;84.17;97696.52;1817735;79;20980;-69
2022/02/04 16:12:23;;;;;;;43.58;29.52;;;;;;;1.57;84.46;97688.80;1817043;79;21036;-62
2022/02/04 16:14:58;;;;;;;45.38;32.42;;;;;;;1.57;84.75;97696.72;1817308;79;20983;-66
2022/02/04 16:17:32;;;;;;;59.53;36.33;;;;;;;1.55;85.05;97694.84;1816762;79;20886;-66
2022/02/04 16:25:44;;;;;;;51.63;34.58;;;;;;;1.58;85.70;97694.38;1817785;79;21099;-68
2022/02/04 16:30:34;;;;;;;118.45;58.00;;;;;;;1.55;85.98;97685.61;1809180;79;21381;-70
2022/02/04 16:33:00;;;;;;;131.82;67.42;;;;;;;1.54;86.28;97683.99;1808996;79;20871;-66
2022/02/04 16:35:28;;;;;;;139.95;71.20;;;;;;;1.52;86.40;97683.44;1808896;79;20937;-64
2022/02/04 16:38:02;;;;;;;229.90;111.62;;;;;;;1.53;86.60;97689.01;1809344;79;21355;-63
2022/02/04 16:40:22;;;;;;;141.75;72.62;;;;;;;1.51;86.76;97687.91;1807534;79;20839;-61
2022/02/04 16:42:49;;;;;;;187.45;95.80;;;;;;;1.50;86.86;97687.64;1809061;79;20949;-63
2022/02/04 16:45:15;;;;;;;176.20;90.05;;;;;;;1.46;87.04;97680.45;1808891;79;20871;-68
2022/02/04 16:47:42;;;;;;;135.90;69.03;;;;;;;1.43;87.17;97681.73;1809039;79;20922;-68
2022/02/04 16:50:10;;;;;;;105.50;57.67;;;;;;;1.41;87.32;97691.72;1809005;79;21724;-67
2022/02/04 16:52:37;;;;;;;124.95;68.85;;;;;;;1.41;87.46;97680.36;1808931;79;21004;-63
2022/02/04 16:55:05;;;;;;;61.15;35.23;;;;;;;1.42;87.63;97691.18;1809010;79;20846;-62
2022/02/04 16:57:32;;;;;;;75.25;45.20;;;;;;;1.41;87.84;97683.00;1809354;79;20878;-66
2022/02/04 17:00:06;;;;;;;41.10;26.37;;;;;;;1.36;87.98;97684.52;1809117;79;20972;-62
2022/02/04 17:02:27;;;;;;;46.13;29.50;;;;;;;1.34;88.14;97688.44;1808046;79;21559;-63
2022/02/04 17:04:53;;;;;;;48.50;29.70;;;;;;;1.32;88.35;97689.98;1808931;79;20910;-70
2022/02/04 17:07:23;;;;;;;43.58;27.50;;;;;;;1.31;88.48;97676.52;1809161;79;20930;-66